createdAt,value
2018-08-10T00:01:14.513Z,5.23
2018-08-10T00:03:42.789Z,6.83
2018-08-10T00:06:11.282Z,5.80
2018-08-10T00:08:39.514Z,8.27
2018-08-10T00:11:08.071Z,6.37
2018-08-10T00:13:36.304Z,6.90
2018-08-10T00:16:04.539Z,6.70
2018-08-10T00:18:32.779Z,6.93
2018-08-10T00:21:01.056Z,8.10
2018-08-10T00:23:29.472Z,7.20
2018-08-10T00:25:57.706Z,8.10
2018-08-10T00:28:25.983Z,9.40
2018-08-10T00:30:54.197Z,8.10
2018-08-10T00:33:22.524Z,8.50
2018-08-10T00:35:50.768Z,7.53
2018-08-10T00:38:18.969Z,7.50
2018-08-10T00:40:47.245Z,7.57
2018-08-10T00:43:15.470Z,9.00
2018-08-10T00:45:43.725Z,9.33
2018-08-10T00:48:11.965Z,8.87
2018-08-10T00:50:40.257Z,9.00
2018-08-10T00:53:08.529Z,8.00
2018-08-10T00:55:36.761Z,8.97
2018-08-10T00:58:05.222Z,8.20
2018-08-10T01:00:33.462Z,8.40
2018-08-10T01:03:01.722Z,9.47
2018-08-10T01:05:29.966Z,10.03
2018-08-10T01:07:58.185Z,9.50
2018-08-10T01:10:26.701Z,8.77
2018-08-10T01:12:54.941Z,8.30
2018-08-10T01:15:23.201Z,7.70
2018-08-10T01:17:51.448Z,8.23
2018-08-10T01:20:20.881Z,9.90
2018-08-10T01:22:54.520Z,9.07
2018-08-10T01:25:23.959Z,8.60
2018-08-10T01:27:55.065Z,8.47
2018-08-10T01:30:23.858Z,7.93
2018-08-10T01:32:52.726Z,7.23
2018-08-10T01:35:21.154Z,9.50
2018-08-10T01:37:49.377Z,11.10
2018-08-10T01:40:18.259Z,7.00
2018-08-10T01:42:46.541Z,7.20
2018-08-10T01:45:14.822Z,7.87
2018-08-10T01:47:43.087Z,7.80
2018-08-10T01:50:11.369Z,8.13
2018-08-10T01:52:40.003Z,6.93
2018-08-10T01:55:09.036Z,7.60
2018-08-10T01:57:38.046Z,7.80
2018-08-10T02:00:06.522Z,6.00
2018-08-10T02:04:04.193Z,7.20
2018-08-10T02:06:32.469Z,6.67
2018-08-10T02:09:00.719Z,7.50
2018-08-10T02:11:28.963Z,8.17
2018-08-10T02:13:57.251Z,7.50
2018-08-10T02:16:25.527Z,9.17
2018-08-10T02:18:53.839Z,7.97
2018-08-10T02:21:22.109Z,8.03
2018-08-10T02:23:50.306Z,8.60
2018-08-10T02:26:18.563Z,8.07
2018-08-10T02:28:46.797Z,7.73
2018-08-10T02:31:15.016Z,9.50
2018-08-10T02:33:43.275Z,9.00
2018-08-10T02:36:11.682Z,7.60
2018-08-10T02:38:39.938Z,8.30
2018-08-10T02:41:08.138Z,7.70
2018-08-10T02:43:36.381Z,9.07
2018-08-10T02:46:04.620Z,7.73
2018-08-10T02:48:32.857Z,9.70
2018-08-10T02:51:01.209Z,9.73
2018-08-10T02:53:29.445Z,8.47
2018-08-10T02:55:57.674Z,8.97
2018-08-10T02:58:26.174Z,9.40
2018-08-10T03:00:54.498Z,8.50
2018-08-10T03:03:22.806Z,7.83
2018-08-10T03:05:51.083Z,7.33
2018-08-10T03:08:19.347Z,8.87
2018-08-10T03:10:47.654Z,8.83
2018-08-10T03:13:15.906Z,8.23
2018-08-10T03:15:44.177Z,10.13
2018-08-10T03:18:12.379Z,9.10
2018-08-10T03:20:40.650Z,7.80
2018-08-10T03:23:08.908Z,10.80
2018-08-10T03:25:37.134Z,10.87
2018-08-10T03:28:05.439Z,10.17
2018-08-10T03:30:33.721Z,9.30
2018-08-10T03:33:01.918Z,10.20
2018-08-10T03:35:30.154Z,9.20
2018-08-10T03:37:58.466Z,7.10
2018-08-10T03:40:26.732Z,7.00
2018-08-10T03:42:55.175Z,8.20
2018-08-10T03:45:23.413Z,7.13
2018-08-10T03:47:51.675Z,7.20
2018-08-10T03:50:19.942Z,11.93
2018-08-10T03:52:48.202Z,7.60
2018-08-10T03:55:16.494Z,7.03
2018-08-10T03:57:44.733Z,6.50
2018-08-10T04:00:14.340Z,6.90
2018-08-10T04:02:42.654Z,6.30
2018-08-10T04:05:12.121Z,6.03
2018-08-10T04:07:40.417Z,6.50
2018-08-10T04:10:09.589Z,6.30
2018-08-10T04:12:38.300Z,5.40
2018-08-10T04:15:10.820Z,5.83
2018-08-10T04:17:39.060Z,6.00
2018-08-10T04:20:07.386Z,5.53
2018-08-10T04:22:35.713Z,6.13
2018-08-10T04:25:04.512Z,6.00
2018-08-10T04:27:32.791Z,7.30
2018-08-10T04:30:01.089Z,7.00
2018-08-10T04:32:29.365Z,7.50
2018-08-10T04:34:57.619Z,6.37
2018-08-10T04:37:25.902Z,6.60
2018-08-10T04:39:54.093Z,7.53
2018-08-10T04:42:22.326Z,6.00
2018-08-10T04:44:50.705Z,5.80
2018-08-10T04:47:19.130Z,6.23
2018-08-10T04:49:47.402Z,7.23
2018-08-10T04:52:15.659Z,5.30
2018-08-10T04:54:43.906Z,6.07
2018-08-10T04:57:12.152Z,6.67
2018-08-10T04:59:40.418Z,8.47
2018-08-10T05:02:08.747Z,6.50
2018-08-10T05:04:37.040Z,7.97
2018-08-10T05:07:05.321Z,6.63
2018-08-10T05:09:33.976Z,6.33
2018-08-10T05:12:02.414Z,6.70
2018-08-10T05:14:30.633Z,5.50
2018-08-10T05:16:58.909Z,5.80
2018-08-10T05:19:27.185Z,6.27
2018-08-10T05:21:55.649Z,6.10
2018-08-10T05:24:23.915Z,6.17
2018-08-10T05:26:52.168Z,6.93
2018-08-10T05:29:20.402Z,6.40
2018-08-10T05:31:48.770Z,7.00
2018-08-10T05:34:16.991Z,6.70
2018-08-10T05:36:45.230Z,7.00
2018-08-10T05:39:13.476Z,5.50
2018-08-10T05:41:41.717Z,5.00
2018-08-10T05:44:10.743Z,6.13
2018-08-10T05:46:39.037Z,5.20
2018-08-10T05:49:07.291Z,5.30
2018-08-10T05:51:36.028Z,5.70
2018-08-10T05:54:04.416Z,5.13
2018-08-10T05:56:32.648Z,5.10
2018-08-10T05:59:00.854Z,5.47
2018-08-10T06:01:29.090Z,4.53
2018-08-10T06:03:57.391Z,5.37
2018-08-10T06:06:25.489Z,4.70
2018-08-10T06:08:53.758Z,5.47
2018-08-10T06:11:22.002Z,6.20
2018-08-10T06:13:50.201Z,6.20
2018-08-10T06:16:18.451Z,5.00
2018-08-10T06:18:46.654Z,5.60
2018-08-10T06:21:14.853Z,5.77
2018-08-10T06:23:43.078Z,6.10
2018-08-10T06:26:11.638Z,6.20
2018-08-10T06:28:40.341Z,8.13
2018-08-10T06:31:08.542Z,6.33
2018-08-10T06:33:36.811Z,5.20
2018-08-10T06:36:05.077Z,4.90
2018-08-10T06:38:33.361Z,5.90
2018-08-10T06:41:01.623Z,3.77
2018-08-10T06:43:29.833Z,3.20
2018-08-10T06:45:58.060Z,4.87
2018-08-10T06:48:26.285Z,3.87
2018-08-10T06:50:54.561Z,3.70
2018-08-10T06:53:22.802Z,5.20
2018-08-10T06:55:51.456Z,4.43
2018-08-10T06:58:19.574Z,3.57
2018-08-10T07:00:47.917Z,3.90
2018-08-10T07:03:16.113Z,4.40
2018-08-10T07:05:44.288Z,4.27
2018-08-10T07:08:12.494Z,4.07
2018-08-10T07:10:40.718Z,3.63
2018-08-10T07:13:09.026Z,4.37
2018-08-10T07:15:37.257Z,3.80
2018-08-10T07:18:05.522Z,4.43
2018-08-10T07:20:33.881Z,4.10
2018-08-10T07:23:02.381Z,3.00
2018-08-10T07:25:30.587Z,3.00
2018-08-10T07:27:58.948Z,2.80
2018-08-10T07:30:27.161Z,3.20
2018-08-10T07:32:55.411Z,2.80
2018-08-10T07:35:23.810Z,2.83
2018-08-10T07:37:52.031Z,1.93
2018-08-10T07:40:20.290Z,2.23
2018-08-10T07:42:48.537Z,2.23
2018-08-10T07:45:16.878Z,1.63
2018-08-10T07:47:45.502Z,1.80
2018-08-10T07:50:13.707Z,2.13
2018-08-10T07:52:42.471Z,3.30
2018-08-10T07:55:10.723Z,2.23
2018-08-10T07:57:38.937Z,2.13
2018-08-10T08:00:08.297Z,2.50
2018-08-10T08:02:36.973Z,2.20
2018-08-10T08:05:05.273Z,3.13
2018-08-10T08:07:33.810Z,2.00
2018-08-10T08:10:02.045Z,1.80
2018-08-10T08:12:30.285Z,2.00
2018-08-10T08:14:58.556Z,2.23
2018-08-10T08:17:26.963Z,2.30
2018-08-10T08:19:55.182Z,2.63
2018-08-10T08:22:23.394Z,2.50
2018-08-10T08:24:51.729Z,2.10
2018-08-10T08:27:20.479Z,2.30
2018-08-10T08:29:48.884Z,2.37
2018-08-10T08:32:17.134Z,2.77
2018-08-10T08:34:45.844Z,2.90
2018-08-10T08:37:13.998Z,3.97
2018-08-10T08:40:16.552Z,4.63
2018-08-10T08:42:45.854Z,2.40
2018-08-10T08:45:48.729Z,2.60
2018-08-10T08:48:16.836Z,2.43
2018-08-10T08:50:47.517Z,3.40
2018-08-10T08:53:15.743Z,2.10
2018-08-10T08:55:52.260Z,2.53
2018-08-10T08:58:20.804Z,1.93
2018-08-10T09:00:49.070Z,2.03
2018-08-10T09:03:29.045Z,2.33
2018-08-10T09:05:57.889Z,1.80
2018-08-10T09:08:26.116Z,2.73
2018-08-10T09:10:55.895Z,2.40
2018-08-10T09:13:24.751Z,2.10
2018-08-10T09:15:53.253Z,2.37
2018-08-10T09:18:21.754Z,2.43
2018-08-10T09:20:50.079Z,2.80
2018-08-10T09:23:18.361Z,2.30
2018-08-10T09:25:46.537Z,2.80
2018-08-10T09:28:14.965Z,3.20
2018-08-10T09:30:43.253Z,3.60
2018-08-10T09:33:11.906Z,2.20
2018-08-10T09:35:40.152Z,1.90
2018-08-10T09:38:08.377Z,3.33
2018-08-10T09:40:36.607Z,2.20
2018-08-10T09:43:04.895Z,2.27
2018-08-10T09:45:33.167Z,2.70
2018-08-10T09:48:01.397Z,2.73
2018-08-10T09:50:29.637Z,1.70
2018-08-10T09:53:00.221Z,2.50
2018-08-10T09:55:33.532Z,2.43
2018-08-10T09:58:04.291Z,3.57
2018-08-10T10:00:37.925Z,2.40
2018-08-10T10:03:12.535Z,2.13
2018-08-10T10:05:40.839Z,1.50
2018-08-10T10:08:09.170Z,2.13
2018-08-10T10:10:37.417Z,1.73
2018-08-10T10:13:05.712Z,2.10
2018-08-10T10:15:34.178Z,1.27
2018-08-10T10:18:02.438Z,1.80
2018-08-10T10:20:31.681Z,2.13
2018-08-10T10:22:59.929Z,2.13
2018-08-10T10:25:28.154Z,1.60
2018-08-10T10:27:56.368Z,1.43
2018-08-10T10:30:24.588Z,1.37
2018-08-10T10:32:52.855Z,1.30
2018-08-10T10:35:21.105Z,4.97
2018-08-10T10:37:49.590Z,2.03
2018-08-10T10:40:17.808Z,1.93
2018-08-10T10:42:46.045Z,1.00
2018-08-10T10:45:15.269Z,1.20
2018-08-10T10:47:44.753Z,2.40
2018-08-10T10:50:13.857Z,1.60
2018-08-10T10:52:42.165Z,1.00
2018-08-10T10:55:10.717Z,1.03
2018-08-10T10:57:39.606Z,1.10
2018-08-10T11:00:11.241Z,1.37
2018-08-10T11:02:39.614Z,1.00
2018-08-10T11:05:08.333Z,0.93
2018-08-10T11:07:37.089Z,1.40
2018-08-10T11:10:06.794Z,1.00
2018-08-10T11:12:35.103Z,1.10
2018-08-10T11:15:03.373Z,1.00
2018-08-10T11:17:31.649Z,2.80
2018-08-10T11:20:00.741Z,2.77
2018-08-10T11:22:29.009Z,2.00
2018-08-10T11:24:57.327Z,0.80
2018-08-10T11:27:25.521Z,1.13
2018-08-10T11:29:53.736Z,4.23
2018-08-10T11:32:21.983Z,2.97
2018-08-10T11:34:50.191Z,3.47
2018-08-10T11:37:18.449Z,1.57
2018-08-10T11:39:46.677Z,1.60
2018-08-10T11:42:14.925Z,1.40
2018-08-10T11:44:43.234Z,1.53
2018-08-10T11:47:11.453Z,1.87
2018-08-10T11:49:39.717Z,2.00
2018-08-10T11:52:08.060Z,1.50
2018-08-10T11:54:36.337Z,1.53
2018-08-10T11:57:04.639Z,1.40
2018-08-10T11:59:33.417Z,1.70
2018-08-10T12:02:01.720Z,3.00
2018-08-10T12:04:29.864Z,1.33
2018-08-10T12:06:59.157Z,1.70
2018-08-10T12:09:27.367Z,2.17
2018-08-10T12:11:56.086Z,1.90
2018-08-10T12:14:24.491Z,1.90
2018-08-10T12:16:52.694Z,1.47
2018-08-10T12:19:20.970Z,2.00
2018-08-10T12:21:49.241Z,1.90
2018-08-10T12:24:17.446Z,2.47
2018-08-10T12:26:45.878Z,2.13
2018-08-10T12:29:14.354Z,2.30
2018-08-10T12:31:42.611Z,2.10
2018-08-10T12:34:10.858Z,2.20
2018-08-10T12:36:39.103Z,4.27
2018-08-10T12:39:10.627Z,12.23
2018-08-10T12:41:39.145Z,2.70
2018-08-10T12:44:07.397Z,8.50
2018-08-10T12:46:35.670Z,3.00
2018-08-10T12:49:03.869Z,2.30
2018-08-10T12:51:32.169Z,2.80
2018-08-10T12:54:00.563Z,3.67
2018-08-10T12:56:28.802Z,2.40
2018-08-10T12:58:57.043Z,2.30
2018-08-10T13:01:26.005Z,2.63
2018-08-10T13:03:54.795Z,3.73
2018-08-10T13:06:23.038Z,3.20
2018-08-10T13:08:52.257Z,5.13
2018-08-10T13:11:20.694Z,3.17
2018-08-10T13:13:49.123Z,2.87
2018-08-10T13:16:17.737Z,3.00
2018-08-10T13:18:46.051Z,2.70
2018-08-10T13:21:14.285Z,4.23
2018-08-10T13:23:42.555Z,2.73
2018-08-10T13:26:10.781Z,4.83
2018-08-10T13:28:39.114Z,5.70
2018-08-10T13:31:07.459Z,3.37
2018-08-10T13:33:35.801Z,2.87
2018-08-10T13:36:04.312Z,4.07
2018-08-10T13:38:32.630Z,3.27
2018-08-10T13:41:00.938Z,2.87
2018-08-10T13:43:29.217Z,3.23
2018-08-10T13:45:58.073Z,3.53
2018-08-10T13:48:26.377Z,3.00
2018-08-10T13:50:54.593Z,2.87
2018-08-10T13:53:23.484Z,2.80
2018-08-10T13:55:51.842Z,3.57
2018-08-10T13:58:20.242Z,2.73
2018-08-10T14:00:49.206Z,3.33
2018-08-10T14:03:17.470Z,2.87
2018-08-10T14:05:45.728Z,3.90
2018-08-10T14:08:13.958Z,3.67
2018-08-10T14:10:42.218Z,3.03
2018-08-10T14:13:10.578Z,3.37
2018-08-10T14:15:38.774Z,3.40
2018-08-10T14:18:07.837Z,3.23
2018-08-10T14:20:36.246Z,2.90
2018-08-10T14:23:04.523Z,3.00
2018-08-10T14:25:32.771Z,3.90
2018-08-10T14:28:01.134Z,3.00
2018-08-10T14:30:29.273Z,2.83
2018-08-10T14:32:57.521Z,3.47
2018-08-10T14:35:25.782Z,3.33
2018-08-10T14:37:54.073Z,3.60
2018-08-10T14:40:22.355Z,3.03
2018-08-10T14:42:50.625Z,3.20
2018-08-10T14:45:18.978Z,2.90
2018-08-10T14:47:47.207Z,2.70
2018-08-10T14:50:16.039Z,3.80
2018-08-10T14:52:44.524Z,3.83
2018-08-10T14:55:14.383Z,3.50
2018-08-10T14:57:42.611Z,5.67
2018-08-10T15:00:14.775Z,2.97
2018-08-10T15:02:43.352Z,3.60
2018-08-10T15:05:11.738Z,3.00
2018-08-10T15:07:40.134Z,3.20
2018-08-10T15:10:10.446Z,3.40
2018-08-10T15:12:39.200Z,3.40
2018-08-10T15:15:09.322Z,3.53
2018-08-10T15:17:37.666Z,5.10
2018-08-10T15:20:06.930Z,3.50
2018-08-10T15:22:35.213Z,3.50
2018-08-10T15:25:04.032Z,3.43
2018-08-10T15:27:32.223Z,3.33
2018-08-10T15:30:00.517Z,3.23
2018-08-10T15:32:28.823Z,3.10
2018-08-10T15:34:57.023Z,3.77
2018-08-10T15:37:25.745Z,4.90
2018-08-10T15:39:53.992Z,6.03
2018-08-10T15:42:22.255Z,3.50
2018-08-10T15:44:50.465Z,3.60
2018-08-10T15:47:18.768Z,3.20
2018-08-10T15:49:46.980Z,3.57
2018-08-10T15:52:15.253Z,3.67
2018-08-10T15:54:43.529Z,3.43
2018-08-10T15:57:11.842Z,3.20
2018-08-10T15:59:40.274Z,2.87
2018-08-10T16:02:08.520Z,3.90
2018-08-10T16:04:36.705Z,2.70
2018-08-10T16:07:05.001Z,3.33
2018-08-10T16:09:33.302Z,3.17
2018-08-10T16:12:01.550Z,2.93
2018-08-10T16:14:29.854Z,3.90
2018-08-10T16:16:58.081Z,4.10
2018-08-10T16:19:26.565Z,2.90
2018-08-10T16:21:54.768Z,2.90
2018-08-10T16:24:23.136Z,3.67
2018-08-10T16:26:51.428Z,3.20
2018-08-10T16:29:19.689Z,4.17
2018-08-10T16:31:48.075Z,4.53
2018-08-10T16:34:16.351Z,4.23
2018-08-10T16:36:44.608Z,3.17
2018-08-10T16:39:12.906Z,3.70
2018-08-10T16:41:41.233Z,4.03
2018-08-10T16:44:09.481Z,3.20
2018-08-10T16:46:37.930Z,3.70
2018-08-10T16:49:06.169Z,4.30
2018-08-10T16:51:34.401Z,4.40
2018-08-10T16:54:02.644Z,3.90
2018-08-10T16:56:30.914Z,5.00
2018-08-10T16:58:59.192Z,6.40
2018-08-10T17:01:27.474Z,4.70
2018-08-10T17:03:55.863Z,4.83
2018-08-10T17:06:24.170Z,4.80
2018-08-10T17:08:52.602Z,4.47
2018-08-10T17:11:20.881Z,4.43
2018-08-10T17:13:49.145Z,4.20
2018-08-10T17:16:17.654Z,4.57
2018-08-10T17:18:45.845Z,4.90
2018-08-10T17:21:14.153Z,5.50
2018-08-10T17:23:42.409Z,4.27
2018-08-10T17:26:10.655Z,5.30
2018-08-10T17:28:38.886Z,5.10
2018-08-10T17:31:07.279Z,5.63
2018-08-10T17:33:35.502Z,6.53
2018-08-10T17:36:03.773Z,6.87
2018-08-10T17:38:32.070Z,6.27
2018-08-10T17:41:00.419Z,6.10
2018-08-10T17:43:28.665Z,7.17
2018-08-10T17:45:56.897Z,6.17
2018-08-10T17:48:25.141Z,6.30
2018-08-10T17:50:53.490Z,7.30
2018-08-10T17:53:21.706Z,8.50
2018-08-10T17:55:49.921Z,6.63
2018-08-10T17:58:18.177Z,6.90
2018-08-10T18:00:46.731Z,6.90
2018-08-10T18:03:15.004Z,7.60
2018-08-10T18:05:43.250Z,8.70
2018-08-10T18:08:11.489Z,8.13
2018-08-10T18:10:39.939Z,8.60
2018-08-10T18:13:08.158Z,9.00
2018-08-10T18:15:36.501Z,9.53
2018-08-10T18:18:04.754Z,9.97
2018-08-10T18:20:33.030Z,9.17
2018-08-10T18:23:01.505Z,9.73
2018-08-10T18:25:29.756Z,10.10
2018-08-10T18:27:58.029Z,9.60
2018-08-10T18:30:26.657Z,8.97
2018-08-10T18:32:54.938Z,9.60
2018-08-10T18:35:23.219Z,9.40
2018-08-10T18:37:51.782Z,11.20
2018-08-10T18:40:20.509Z,10.03
2018-08-10T18:42:49.375Z,11.07
2018-08-10T18:45:19.061Z,10.43
2018-08-10T18:47:47.745Z,10.83
2018-08-10T18:50:17.168Z,10.00
2018-08-10T18:52:45.451Z,9.57
2018-08-10T18:55:16.213Z,10.93
2018-08-10T18:57:44.495Z,11.67
2018-08-10T19:00:15.878Z,10.30
2018-08-10T19:02:44.298Z,11.97
2018-08-10T19:05:13.877Z,11.43
2018-08-10T19:07:42.459Z,11.27
2018-08-10T19:10:11.966Z,11.70
2018-08-10T19:12:40.317Z,12.50
2018-08-10T19:15:10.669Z,12.10
2018-08-10T19:17:39.028Z,12.80
2018-08-10T19:20:07.574Z,12.10
2018-08-10T19:22:36.087Z,12.77
2018-08-10T19:25:05.644Z,13.00
2018-08-10T19:27:34.014Z,13.60
2018-08-10T19:30:03.169Z,14.30
2018-08-10T19:32:31.382Z,13.53
2018-08-10T19:34:59.673Z,13.47
2018-08-10T19:37:27.897Z,13.10
2018-08-10T19:39:56.150Z,13.70
2018-08-10T19:42:24.382Z,14.43
2018-08-10T19:44:52.613Z,13.60
2018-08-10T19:47:20.882Z,14.30
2018-08-10T19:49:49.394Z,15.00
2018-08-10T19:52:17.677Z,15.43
2018-08-10T19:54:45.938Z,16.43
2018-08-10T19:57:14.196Z,15.47
2018-08-10T19:59:42.425Z,14.40
2018-08-10T20:02:10.670Z,19.23
2018-08-10T20:04:38.917Z,16.10
2018-08-10T20:07:07.353Z,15.90
2018-08-10T20:09:35.585Z,15.43
2018-08-10T20:12:03.930Z,14.57
2018-08-10T20:14:32.189Z,14.77
2018-08-10T20:17:00.608Z,15.20
2018-08-10T20:19:28.939Z,14.20
2018-08-10T20:21:57.180Z,14.03
2018-08-10T20:24:25.573Z,13.90
2018-08-10T20:26:53.852Z,13.10
2018-08-10T20:29:22.091Z,13.53
2018-08-10T20:31:50.369Z,14.07
2018-08-10T20:34:18.703Z,12.33
2018-08-10T20:36:46.930Z,13.70
2018-08-10T20:39:15.174Z,16.80
2018-08-10T20:41:43.409Z,15.90
2018-08-10T20:44:11.662Z,17.73
2018-08-10T20:46:40.658Z,16.77
2018-08-10T20:49:08.957Z,16.40
2018-08-10T20:51:37.209Z,17.47
2018-08-10T20:54:05.472Z,17.40
2018-08-10T20:56:33.891Z,17.33
2018-08-10T20:59:02.213Z,17.60
2018-08-10T21:01:30.478Z,17.47
2018-08-10T21:03:58.818Z,16.70
2018-08-10T21:06:27.325Z,17.20
2018-08-10T21:08:55.601Z,18.10
2018-08-10T21:11:24.004Z,18.20
2018-08-10T21:13:52.297Z,20.53
2018-08-10T21:16:20.518Z,17.67
2018-08-10T21:18:48.903Z,17.67
2018-08-10T21:21:17.381Z,19.83
2018-08-10T21:23:45.649Z,19.10
2018-08-10T21:26:14.166Z,17.23
2018-08-10T21:28:42.485Z,16.33
2018-08-10T21:31:10.738Z,17.10
2018-08-10T21:33:39.010Z,16.47
2018-08-10T21:36:07.258Z,17.10
2018-08-10T21:38:35.533Z,16.43
2018-08-10T21:41:03.974Z,17.13
2018-08-10T21:43:32.317Z,17.37
2018-08-10T21:46:00.556Z,17.67
2018-08-10T21:48:28.872Z,18.37
2018-08-10T21:50:57.052Z,16.90
2018-08-10T21:53:25.292Z,15.60
2018-08-10T21:55:53.579Z,17.13
2018-08-10T21:58:21.786Z,16.53
2018-08-10T22:00:55.445Z,17.90
2018-08-10T22:03:24.377Z,18.60
2018-08-10T22:05:52.673Z,18.10
2018-08-10T22:08:21.809Z,17.40
2018-08-10T22:10:50.261Z,16.70
2018-08-10T22:13:24.009Z,19.10
2018-08-10T22:15:57.467Z,18.03
2018-08-10T22:18:31.135Z,18.37
2018-08-10T22:20:59.766Z,19.30
2018-08-10T22:23:28.998Z,16.10
2018-08-10T22:25:58.117Z,16.67
2018-08-10T22:28:26.377Z,17.10
2018-08-10T22:30:54.642Z,16.30
2018-08-10T22:33:22.912Z,17.00
2018-08-10T22:35:51.344Z,15.20
2018-08-10T22:38:19.576Z,13.33
2018-08-10T22:40:47.853Z,15.37
2018-08-10T22:43:16.097Z,15.07
2018-08-10T22:45:44.374Z,16.73
2018-08-10T22:48:12.601Z,16.70
2018-08-10T22:50:41.140Z,16.27
2018-08-10T22:53:09.442Z,15.53
2018-08-10T22:55:37.873Z,15.10
2018-08-10T22:58:06.093Z,16.13
2018-08-10T23:00:34.369Z,14.73
2018-08-10T23:03:02.620Z,13.23
2018-08-10T23:05:30.925Z,15.23
2018-08-10T23:07:59.316Z,14.27
2018-08-10T23:10:27.577Z,14.83
2018-08-10T23:12:55.852Z,13.70
2018-08-10T23:15:24.264Z,14.43
2018-08-10T23:17:52.510Z,13.93
2018-08-10T23:20:20.818Z,13.50
2018-08-10T23:22:49.005Z,13.17
2018-08-10T23:25:17.261Z,11.50
2018-08-10T23:27:45.512Z,11.13
2018-08-10T23:30:15.967Z,10.93
2018-08-10T23:32:44.899Z,10.83
2018-08-10T23:35:13.161Z,11.50
2018-08-10T23:37:41.385Z,11.30
2018-08-10T23:40:12.402Z,11.50
2018-08-10T23:42:40.650Z,10.03
2018-08-10T23:45:10.701Z,10.90
2018-08-10T23:47:39.301Z,10.47
2018-08-10T23:50:09.867Z,11.73
2018-08-10T23:52:38.214Z,11.97
2018-08-10T23:55:07.071Z,10.80
2018-08-10T23:57:35.717Z,10.80
